createdAt,value
2023-05-08T00:00:02.112Z,13.80
2023-05-08T00:02:33.540Z,13.80
2023-05-08T00:05:00.760Z,13.77
2023-05-08T00:07:27.648Z,13.83
2023-05-08T00:09:54.793Z,13.96
2023-05-08T00:12:21.730Z,14.02
2023-05-08T00:14:48.679Z,13.70
2023-05-08T00:17:15.834Z,13.39
2023-05-08T00:19:42.712Z,13.41
2023-05-08T00:22:09.846Z,13.37
2023-05-08T00:24:36.772Z,13.19
2023-05-08T00:27:03.768Z,13.16
2023-05-08T00:29:30.781Z,13.21
2023-05-08T00:31:57.812Z,13.17
2023-05-08T00:34:24.900Z,13.05
2023-05-08T00:36:52.188Z,13.15
2023-05-08T00:39:19.167Z,13.00
2023-05-08T00:41:46.066Z,12.83
2023-05-08T00:44:13.149Z,12.70
2023-05-08T00:46:42.863Z,12.93
2023-05-08T00:49:13.208Z,13.02
2023-05-08T00:51:42.400Z,13.18
2023-05-08T00:54:10.394Z,13.24
2023-05-08T00:56:38.659Z,13.18
2023-05-08T00:59:11.190Z,13.40
2023-05-08T01:01:38.723Z,13.59
2023-05-08T01:04:06.323Z,13.44
2023-05-08T01:06:37.316Z,13.60
2023-05-08T01:09:04.647Z,13.58
2023-05-08T01:12:02.306Z,13.71
2023-05-08T01:15:01.461Z,13.73
2023-05-08T01:17:54.876Z,13.76
2023-05-08T01:20:53.321Z,13.81
2023-05-08T01:23:26.327Z,13.63
2023-05-08T01:26:02.841Z,13.59
2023-05-08T01:28:58.011Z,13.44
2023-05-08T01:31:48.937Z,13.36
2023-05-08T01:34:24.046Z,13.54
2023-05-08T01:36:53.841Z,13.56
2023-05-08T01:39:29.678Z,13.54
2023-05-08T01:42:03.235Z,13.50
2023-05-08T01:44:37.349Z,13.17
2023-05-08T01:47:10.022Z,13.42
2023-05-08T01:50:07.307Z,13.42
2023-05-08T01:52:45.365Z,13.23
2023-05-08T01:55:27.141Z,13.11
2023-05-08T01:57:59.080Z,12.95
2023-05-08T02:00:28.575Z,12.96
2023-05-08T02:02:57.129Z,12.79
2023-05-08T02:05:26.385Z,12.63
2023-05-08T02:07:55.226Z,12.22
2023-05-08T02:10:24.346Z,11.90
2023-05-08T02:12:53.756Z,11.55
2023-05-08T02:15:22.073Z,11.66
2023-05-08T02:17:50.883Z,11.89
2023-05-08T02:20:20.418Z,11.82
2023-05-08T02:22:51.599Z,11.46
2023-05-08T02:25:19.737Z,11.03
2023-05-08T02:27:49.575Z,11.04
2023-05-08T02:30:19.191Z,10.96
2023-05-08T02:32:48.567Z,10.92
2023-05-08T02:35:18.239Z,10.86
2023-05-08T02:37:53.694Z,10.83
2023-05-08T02:40:22.453Z,10.87
2023-05-08T02:42:49.826Z,10.87
2023-05-08T02:45:17.054Z,10.77
2023-05-08T02:47:51.313Z,10.84
2023-05-08T02:50:24.402Z,11.05
2023-05-08T02:52:54.546Z,11.32
2023-05-08T02:55:44.162Z,11.45
2023-05-08T02:58:20.529Z,11.51
2023-05-08T03:00:58.501Z,11.62
2023-05-08T03:03:39.062Z,11.50
2023-05-08T03:06:12.252Z,11.88
2023-05-08T03:08:40.372Z,11.93
2023-05-08T03:11:16.258Z,11.70
2023-05-08T03:13:47.636Z,11.67
2023-05-08T03:16:24.607Z,11.89
2023-05-08T03:18:56.882Z,12.01
2023-05-08T03:21:28.721Z,12.16
2023-05-08T03:23:58.681Z,11.96
2023-05-08T03:26:26.240Z,11.72
2023-05-08T03:28:54.265Z,11.50
2023-05-08T03:31:26.946Z,11.59
2023-05-08T03:33:55.474Z,11.75
2023-05-08T03:36:25.152Z,11.87
2023-05-08T03:38:52.722Z,12.08
2023-05-08T03:41:20.088Z,12.05
2023-05-08T03:43:48.996Z,12.39
2023-05-08T03:46:17.468Z,12.54
2023-05-08T03:48:46.389Z,12.62
2023-05-08T03:51:15.553Z,12.49
2023-05-08T03:53:43.374Z,12.37
2023-05-08T03:56:10.543Z,12.63
2023-05-08T03:58:40.817Z,12.55
2023-05-08T04:01:18.599Z,12.36
2023-05-08T04:04:03.688Z,12.72
2023-05-08T04:06:59.662Z,13.02
2023-05-08T04:09:49.223Z,13.37
2023-05-08T04:12:22.121Z,13.76
2023-05-08T04:14:56.261Z,13.89
2023-05-08T04:17:33.511Z,14.16
2023-05-08T04:20:04.600Z,14.57
2023-05-08T04:22:33.844Z,14.57
2023-05-08T04:25:05.370Z,14.14
2023-05-08T04:27:33.204Z,14.14
2023-05-08T04:30:01.518Z,14.08
2023-05-08T04:32:35.224Z,13.84
2023-05-08T04:35:03.988Z,13.52
2023-05-08T04:37:32.184Z,13.59
2023-05-08T04:40:02.212Z,13.89
2023-05-08T04:42:33.515Z,14.12
2023-05-08T04:45:01.220Z,14.37
2023-05-08T04:47:29.303Z,14.71
2023-05-08T04:49:56.326Z,15.07
2023-05-08T04:52:23.379Z,15.12
2023-05-08T04:54:50.373Z,15.44
2023-05-08T04:57:17.332Z,15.46
2023-05-08T04:59:44.355Z,15.70
2023-05-08T05:02:16.072Z,15.72
2023-05-08T05:04:43.978Z,15.79
2023-05-08T05:07:11.178Z,15.81
2023-05-08T05:09:39.379Z,15.53
2023-05-08T05:12:07.406Z,15.87
2023-05-08T05:14:35.443Z,15.83
2023-05-08T05:17:03.184Z,15.92
2023-05-08T05:19:30.338Z,16.33
2023-05-08T05:21:57.674Z,16.47
2023-05-08T05:24:25.266Z,16.88
2023-05-08T05:26:52.291Z,16.87
2023-05-08T05:29:19.306Z,17.06
2023-05-08T05:31:47.306Z,16.89
2023-05-08T05:34:15.564Z,16.80
2023-05-08T05:36:42.617Z,17.08
2023-05-08T05:39:09.766Z,17.46
2023-05-08T05:41:44.563Z,17.55
2023-05-08T05:44:16.926Z,17.74
2023-05-08T05:46:45.596Z,17.66
2023-05-08T05:49:13.677Z,18.04
2023-05-08T05:51:41.691Z,18.43
2023-05-08T05:54:09.177Z,18.59
2023-05-08T05:56:36.344Z,18.64
2023-05-08T05:59:04.143Z,18.63
2023-05-08T06:01:31.280Z,18.87
2023-05-08T06:04:00.305Z,19.06
2023-05-08T06:06:27.649Z,19.39
2023-05-08T06:08:54.605Z,19.75
2023-05-08T06:11:24.347Z,19.73
2023-05-08T06:13:54.067Z,19.43
2023-05-08T06:16:24.230Z,19.55
2023-05-08T06:18:51.355Z,20.00
2023-05-08T06:21:18.327Z,20.17
2023-05-08T06:23:45.866Z,19.88
2023-05-08T06:26:12.959Z,19.94
2023-05-08T06:28:39.926Z,20.09
2023-05-08T06:31:09.465Z,19.73
2023-05-08T06:33:36.505Z,19.79
2023-05-08T06:36:06.178Z,20.09
2023-05-08T06:38:33.153Z,19.24
2023-05-08T06:41:00.068Z,18.89
2023-05-08T06:43:27.164Z,18.67
2023-05-08T06:45:56.741Z,19.01
2023-05-08T06:48:23.777Z,19.54
2023-05-08T06:50:51.771Z,19.84
2023-05-08T06:53:18.707Z,20.07
2023-05-08T06:55:45.707Z,20.00
2023-05-08T06:58:12.720Z,20.11
2023-05-08T07:00:39.773Z,20.37
2023-05-08T07:03:06.804Z,20.15
2023-05-08T07:05:33.847Z,20.24
2023-05-08T07:08:00.930Z,20.63
2023-05-08T07:10:28.858Z,20.70
2023-05-08T07:12:55.986Z,20.64
2023-05-08T07:15:26.606Z,20.65
2023-05-08T07:17:54.457Z,20.73
2023-05-08T07:20:21.987Z,20.59
2023-05-08T07:22:49.259Z,20.54
2023-05-08T07:25:17.023Z,20.84
2023-05-08T07:27:44.049Z,20.88
2023-05-08T07:30:11.325Z,20.57
2023-05-08T07:32:41.371Z,20.54
2023-05-08T07:35:11.230Z,20.51
2023-05-08T07:37:39.598Z,20.15
2023-05-08T07:40:07.224Z,20.17
2023-05-08T07:42:44.377Z,20.71
2023-05-08T07:45:13.143Z,20.93
2023-05-08T07:47:50.366Z,20.66
2023-05-08T07:50:17.645Z,20.63
2023-05-08T07:52:45.661Z,20.34
2023-05-08T07:55:14.090Z,21.39
2023-05-08T07:57:42.800Z,21.63
2023-05-08T08:00:11.827Z,21.75
2023-05-08T08:02:42.834Z,22.01
2023-05-08T08:05:10.383Z,21.85
2023-05-08T08:07:37.605Z,21.80
2023-05-08T08:10:05.521Z,21.78
2023-05-08T08:12:32.711Z,21.76
2023-05-08T08:14:59.874Z,21.78
2023-05-08T08:17:28.656Z,22.06
2023-05-08T08:19:57.194Z,22.14
2023-05-08T08:22:24.973Z,21.89
2023-05-08T08:24:54.652Z,22.03
2023-05-08T08:27:22.825Z,22.05
2023-05-08T08:29:52.534Z,22.17
2023-05-08T08:32:25.893Z,22.33
2023-05-08T08:34:52.981Z,22.29
2023-05-08T08:37:20.010Z,22.37
2023-05-08T08:39:48.351Z,22.25
2023-05-08T08:42:15.583Z,22.26
2023-05-08T08:44:43.000Z,22.27
2023-05-08T08:47:16.547Z,22.25
2023-05-08T08:49:49.646Z,21.81
2023-05-08T08:52:27.108Z,21.92
2023-05-08T08:54:57.037Z,21.85
2023-05-08T08:57:26.316Z,21.53
2023-05-08T08:59:55.170Z,21.38
2023-05-08T09:02:23.616Z,21.58
2023-05-08T09:04:50.817Z,21.41
2023-05-08T09:07:18.641Z,21.82
2023-05-08T09:09:46.820Z,22.03
2023-05-08T09:12:14.530Z,22.20
2023-05-08T09:14:41.546Z,22.10
2023-05-08T09:17:09.574Z,22.06
2023-05-08T09:19:36.981Z,22.06
2023-05-08T09:22:06.853Z,22.35
2023-05-08T09:24:59.849Z,22.08
2023-05-08T09:27:28.840Z,22.34
2023-05-08T09:30:06.971Z,22.05
2023-05-08T09:32:36.622Z,22.06
2023-05-08T09:35:05.444Z,22.30
2023-05-08T09:37:34.206Z,22.79
2023-05-08T09:40:14.703Z,23.01
2023-05-08T09:42:41.788Z,22.95
2023-05-08T09:45:10.760Z,23.17
2023-05-08T09:47:39.525Z,23.21
2023-05-08T09:50:09.362Z,23.11
2023-05-08T09:52:39.066Z,23.07
2023-05-08T09:55:09.422Z,23.34
2023-05-08T09:57:40.415Z,22.87
2023-05-08T10:00:13.067Z,22.98
2023-05-08T10:02:42.167Z,23.14
2023-05-08T10:05:27.118Z,23.22
2023-05-08T10:07:55.345Z,23.57
2023-05-08T10:10:31.020Z,23.28
2023-05-08T10:12:58.974Z,23.22
2023-05-08T10:15:29.894Z,23.12
2023-05-08T10:18:06.161Z,22.56
2023-05-08T10:20:35.286Z,22.37
2023-05-08T10:23:04.269Z,22.54
2023-05-08T10:25:36.465Z,22.42
2023-05-08T10:28:24.269Z,22.96
2023-05-08T10:30:55.590Z,23.05
2023-05-08T10:33:28.997Z,23.16
2023-05-08T10:35:59.052Z,23.10
2023-05-08T10:38:27.330Z,23.29
2023-05-08T10:40:58.138Z,23.24
2023-05-08T10:43:25.809Z,23.42
2023-05-08T10:45:58.046Z,23.54
2023-05-08T10:48:50.834Z,23.79
2023-05-08T10:51:26.419Z,24.24
2023-05-08T10:54:02.278Z,24.01
2023-05-08T10:56:29.547Z,24.08
2023-05-08T10:58:57.839Z,24.09
2023-05-08T11:01:26.805Z,23.98
2023-05-08T11:03:56.248Z,23.90
2023-05-08T11:06:46.875Z,23.88
2023-05-08T11:09:28.277Z,23.68
2023-05-08T11:12:08.273Z,23.67
2023-05-08T11:14:38.146Z,23.32
2023-05-08T11:17:05.848Z,23.42
2023-05-08T11:19:33.118Z,23.35
2023-05-08T11:22:25.896Z,23.47
2023-05-08T11:24:59.283Z,22.93
2023-05-08T11:27:36.613Z,23.18
2023-05-08T11:30:24.939Z,23.25
2023-05-08T11:32:59.650Z,23.31
2023-05-08T11:35:58.147Z,23.26
2023-05-08T11:38:36.637Z,23.21
2023-05-08T11:41:20.033Z,23.14
2023-05-08T11:53:36.898Z,23.14
2023-05-08T11:56:04.578Z,23.24
2023-05-08T11:58:31.799Z,23.20
2023-05-08T12:00:58.768Z,22.86
2023-05-08T12:03:26.974Z,22.54
2023-05-08T12:05:58.782Z,21.85
2023-05-08T12:08:26.180Z,21.96
2023-05-08T12:10:54.568Z,21.79
2023-05-08T12:13:24.215Z,21.55
2023-05-08T12:15:58.742Z,21.46
2023-05-08T12:18:30.686Z,21.18
2023-05-08T12:20:59.871Z,21.04
2023-05-08T12:23:29.463Z,20.86
2023-05-08T12:26:01.384Z,20.62
2023-05-08T12:28:29.563Z,20.32
2023-05-08T12:30:56.869Z,20.11
2023-05-08T12:33:24.806Z,19.96
2023-05-08T12:35:52.162Z,19.72
2023-05-08T12:38:26.531Z,19.43
2023-05-08T12:40:57.863Z,19.40
2023-05-08T12:43:34.666Z,19.41
2023-05-08T12:46:03.860Z,19.20
2023-05-08T12:48:31.733Z,19.20
2023-05-08T12:51:03.947Z,19.13
2023-05-08T12:53:33.170Z,18.96
2023-05-08T12:56:04.558Z,18.86
2023-05-08T12:58:34.332Z,18.46
2023-05-08T13:01:07.536Z,18.13
2023-05-08T13:03:35.000Z,17.85
2023-05-08T13:06:02.070Z,17.59
2023-05-08T13:08:37.676Z,17.31
2023-05-08T13:11:06.614Z,17.08
2023-05-08T13:13:35.292Z,16.98
2023-05-08T13:16:04.704Z,16.94
2023-05-08T13:18:32.159Z,16.72
2023-05-08T13:20:59.879Z,16.65
2023-05-08T13:23:26.871Z,16.77
2023-05-08T13:25:55.784Z,16.66
2023-05-08T13:28:23.090Z,16.81
2023-05-08T13:30:50.105Z,16.78
2023-05-08T13:33:17.303Z,16.73
2023-05-08T13:35:44.279Z,16.74
2023-05-08T13:38:11.351Z,16.63
2023-05-08T13:40:38.439Z,16.65
2023-05-08T13:43:05.859Z,16.62
2023-05-08T13:45:33.173Z,16.79
2023-05-08T13:48:00.535Z,16.83
2023-05-08T13:50:27.741Z,17.00
2023-05-08T13:52:55.308Z,17.01
2023-05-08T13:55:23.612Z,17.19
2023-05-08T13:57:51.172Z,17.40
2023-05-08T14:00:18.752Z,17.65
2023-05-08T14:02:46.060Z,18.03
2023-05-08T14:05:13.632Z,18.27
2023-05-08T14:07:41.011Z,18.50
2023-05-08T14:10:08.607Z,18.37
2023-05-08T14:12:36.512Z,18.73
2023-05-08T14:15:05.546Z,18.89
2023-05-08T14:17:35.754Z,19.18
2023-05-08T14:20:04.757Z,19.36
2023-05-08T14:22:35.872Z,19.61
2023-05-08T14:25:03.453Z,19.77
2023-05-08T14:27:33.414Z,19.74
2023-05-08T14:30:01.466Z,19.68
2023-05-08T14:32:37.175Z,19.88
2023-05-08T14:35:04.828Z,19.67
2023-05-08T14:37:34.002Z,19.47
2023-05-08T14:40:01.158Z,19.17
2023-05-08T14:42:33.472Z,19.34
2023-05-08T14:45:00.772Z,19.40
2023-05-08T14:47:28.342Z,19.37
2023-05-08T14:49:55.548Z,19.51
2023-05-08T14:52:22.487Z,19.80
2023-05-08T14:54:53.612Z,19.80
2023-05-08T14:57:22.693Z,19.80
2023-05-08T15:02:20.931Z,19.48
2023-05-08T15:04:48.212Z,19.63
2023-05-08T15:07:15.373Z,19.46
2023-05-08T15:09:42.730Z,19.38
2023-05-08T15:12:09.773Z,19.39
2023-05-08T15:14:36.946Z,19.40
2023-05-08T15:17:04.257Z,19.17
2023-05-08T15:19:31.214Z,19.37
2023-05-08T15:21:58.206Z,19.41
2023-05-08T15:24:26.488Z,19.24
2023-05-08T15:26:54.810Z,19.43
2023-05-08T15:29:21.710Z,19.38
2023-05-08T15:31:49.148Z,19.25
2023-05-08T15:34:16.074Z,19.11
2023-05-08T15:36:43.097Z,19.31
2023-05-08T15:39:10.777Z,19.42
2023-05-08T15:41:39.806Z,19.21
2023-05-08T15:44:09.725Z,19.21
2023-05-08T15:46:36.932Z,19.11
2023-05-08T15:49:04.800Z,19.14
2023-05-08T15:51:33.431Z,19.16
2023-05-08T15:54:00.414Z,19.12
2023-05-08T15:56:27.602Z,19.21
2023-05-08T15:58:54.713Z,19.11
2023-05-08T16:01:21.730Z,19.11
2023-05-08T16:03:49.243Z,18.90
2023-05-08T16:06:16.691Z,18.80
2023-05-08T16:08:45.052Z,18.39
2023-05-08T16:11:12.230Z,18.32
2023-05-08T16:13:39.240Z,18.42
2023-05-08T16:16:06.594Z,18.26
2023-05-08T16:18:33.844Z,18.36
2023-05-08T16:21:01.220Z,17.99
2023-05-08T16:23:28.318Z,17.64
2023-05-08T16:25:55.490Z,17.26
2023-05-08T16:28:22.571Z,17.27
2023-05-08T16:30:49.548Z,17.05
2023-05-08T16:33:16.740Z,16.81
2023-05-08T16:35:44.870Z,16.73
2023-05-08T16:38:11.957Z,16.77
2023-05-08T16:40:38.933Z,16.62
2023-05-08T16:43:11.330Z,16.72
2023-05-08T16:45:38.405Z,16.53
2023-05-08T16:48:05.662Z,16.35
2023-05-08T16:50:32.665Z,16.40
2023-05-08T16:53:00.045Z,16.39
2023-05-08T16:55:27.057Z,16.40
2023-05-08T16:57:54.115Z,16.43
2023-05-08T17:00:22.058Z,16.78
2023-05-08T17:02:49.566Z,17.02
2023-05-08T17:05:16.594Z,17.16
2023-05-08T17:07:43.654Z,17.21
2023-05-08T17:10:12.031Z,17.23
2023-05-08T17:12:42.029Z,17.21
2023-05-08T17:15:11.301Z,17.19
2023-05-08T17:17:40.310Z,17.13
2023-05-08T17:20:08.264Z,16.95
2023-05-08T17:22:36.701Z,16.69
2023-05-08T17:25:04.307Z,16.85
2023-05-08T17:27:31.401Z,17.07
2023-05-08T17:29:58.446Z,17.22
2023-05-08T17:32:25.507Z,17.36
2023-05-08T17:34:52.610Z,17.46
2023-05-08T17:37:19.589Z,17.39
2023-05-08T17:39:46.599Z,17.41
2023-05-08T17:42:13.960Z,17.50
2023-05-08T17:44:40.931Z,17.45
2023-05-08T17:47:09.299Z,17.53
2023-05-08T17:49:36.283Z,17.31
2023-05-08T17:52:04.963Z,17.22
2023-05-08T17:54:31.948Z,17.41
2023-05-08T17:56:59.249Z,17.16
2023-05-08T17:59:27.734Z,17.18
2023-05-08T18:01:54.895Z,16.70
2023-05-08T18:04:22.398Z,16.90
2023-05-08T18:06:49.681Z,16.64
2023-05-08T18:09:17.122Z,16.62
2023-05-08T18:11:44.133Z,16.57
2023-05-08T18:14:12.316Z,16.61
2023-05-08T18:16:39.497Z,16.76
2023-05-08T18:19:06.696Z,16.79
2023-05-08T18:21:33.801Z,16.90
2023-05-08T18:24:06.412Z,16.44
2023-05-08T18:26:33.309Z,16.37
2023-05-08T18:29:00.359Z,16.36
2023-05-08T18:31:28.347Z,16.12
2023-05-08T18:33:56.334Z,15.85
2023-05-08T18:36:24.820Z,15.80
2023-05-08T18:38:52.641Z,16.06
2023-05-08T18:41:19.701Z,15.98
2023-05-08T18:43:47.338Z,15.71
2023-05-08T18:46:14.681Z,15.65
2023-05-08T18:48:41.935Z,15.92
2023-05-08T18:51:09.491Z,16.12
2023-05-08T18:53:40.942Z,16.07
2023-05-08T18:56:13.531Z,15.91
2023-05-08T18:58:40.743Z,15.81
2023-05-08T19:01:07.925Z,15.80
2023-05-08T19:03:35.158Z,15.59
2023-05-08T19:06:02.999Z,15.77
2023-05-08T19:08:30.244Z,15.88
2023-05-08T19:10:57.318Z,16.07
2023-05-08T19:13:24.388Z,16.11
2023-05-08T19:15:51.773Z,16.24
2023-05-08T19:18:18.791Z,16.14
2023-05-08T19:20:45.777Z,16.31
2023-05-08T19:23:12.745Z,16.38
2023-05-08T19:25:39.843Z,16.35
2023-05-08T19:28:08.019Z,16.23
2023-05-08T19:30:34.987Z,16.24
2023-05-08T19:33:04.145Z,16.26
2023-05-08T19:35:31.568Z,16.30
2023-05-08T19:37:59.040Z,16.37
2023-05-08T19:40:26.082Z,16.42
2023-05-08T19:42:53.267Z,16.42
2023-05-08T19:45:20.231Z,16.59
2023-05-08T19:47:49.270Z,16.52
2023-05-08T19:50:18.142Z,16.52
2023-05-08T19:52:47.139Z,16.49
2023-05-08T19:55:18.410Z,16.33
2023-05-08T19:57:45.521Z,16.03
2023-05-08T20:00:13.065Z,16.14
2023-05-08T20:02:40.386Z,16.03
2023-05-08T20:07:37.627Z,15.82
2023-05-08T20:10:05.065Z,15.83
2023-05-08T20:12:33.107Z,16.00
2023-05-08T20:15:00.196Z,15.82
2023-05-08T20:17:27.570Z,15.92
2023-05-08T20:19:54.704Z,15.97
2023-05-08T20:22:21.825Z,15.90
2023-05-08T20:24:49.483Z,15.99
2023-05-08T20:27:16.639Z,15.92
2023-05-08T20:29:43.662Z,15.78
2023-05-08T20:32:18.992Z,15.78
2023-05-08T20:34:46.052Z,15.36
2023-05-08T20:37:13.156Z,15.39
2023-05-08T20:39:40.267Z,15.28
2023-05-08T20:42:07.193Z,15.34
2023-05-08T20:44:34.219Z,15.08
2023-05-08T20:47:01.261Z,15.14
2023-05-08T20:49:28.462Z,15.19
2023-05-08T20:51:55.401Z,15.08
2023-05-08T20:54:22.390Z,14.98
2023-05-08T20:56:49.972Z,14.87
2023-05-08T20:59:19.072Z,14.80
2023-05-08T21:01:47.508Z,14.81
2023-05-08T21:04:14.782Z,14.87
2023-05-08T21:06:42.065Z,14.89
2023-05-08T21:09:09.045Z,15.03
2023-05-08T21:11:36.111Z,15.15
2023-05-08T21:14:03.045Z,14.83
2023-05-08T21:16:30.063Z,14.79
2023-05-08T21:18:58.343Z,14.49
2023-05-08T21:21:25.669Z,14.19
2023-05-08T21:23:52.934Z,14.22
2023-05-08T21:26:23.563Z,13.93
2023-05-08T21:28:52.514Z,13.90
2023-05-08T21:31:20.390Z,13.92
2023-05-08T21:33:47.761Z,13.94
2023-05-08T21:36:14.817Z,13.82
2023-05-08T21:38:41.839Z,13.78
2023-05-08T21:41:08.954Z,13.78
2023-05-08T21:43:36.472Z,13.85
2023-05-08T21:46:05.664Z,13.95
2023-05-08T21:48:33.644Z,13.56
2023-05-08T21:51:01.258Z,13.75
2023-05-08T21:53:28.601Z,13.71
2023-05-08T21:55:55.694Z,13.71
2023-05-08T21:58:22.722Z,13.76
2023-05-08T22:00:49.671Z,13.82
2023-05-08T22:03:16.806Z,13.69
2023-05-08T22:05:43.948Z,13.71
2023-05-08T22:08:11.077Z,13.66
2023-05-08T22:10:38.224Z,13.69
2023-05-08T22:13:06.639Z,13.76
2023-05-08T22:15:34.497Z,13.69
2023-05-08T22:18:03.744Z,13.69
2023-05-08T22:20:31.773Z,13.68
2023-05-08T22:22:58.762Z,13.57
2023-05-08T22:25:26.774Z,13.70
2023-05-08T22:27:54.187Z,13.76
2023-05-08T22:30:21.422Z,13.78
2023-05-08T22:32:58.491Z,13.93
2023-05-08T22:35:27.405Z,13.67
2023-05-08T22:37:57.954Z,13.64
2023-05-08T22:40:25.425Z,13.63
2023-05-08T22:42:53.679Z,13.55
2023-05-08T22:45:20.902Z,13.50
2023-05-08T22:47:48.216Z,13.53
2023-05-08T22:50:17.363Z,13.54
2023-05-08T22:52:44.698Z,13.61
2023-05-08T22:55:12.039Z,13.65
2023-05-08T22:57:40.786Z,13.42
2023-05-08T23:00:08.541Z,13.37
2023-05-08T23:02:35.971Z,13.24
2023-05-08T23:05:03.946Z,13.25
2023-05-08T23:07:33.343Z,13.22
2023-05-08T23:10:00.697Z,13.08
2023-05-08T23:12:29.529Z,13.11
2023-05-08T23:14:56.431Z,12.90
2023-05-08T23:17:23.413Z,13.13
2023-05-08T23:19:56.679Z,13.16
2023-05-08T23:22:23.697Z,13.13
2023-05-08T23:24:50.618Z,13.19
2023-05-08T23:27:17.706Z,13.18
2023-05-08T23:29:44.754Z,13.16
2023-05-08T23:32:12.792Z,13.27
2023-05-08T23:34:42.488Z,13.29
2023-05-08T23:37:09.484Z,13.28
2023-05-08T23:39:41.137Z,13.30
2023-05-08T23:42:08.722Z,13.17
2023-05-08T23:44:35.847Z,13.25
2023-05-08T23:47:03.084Z,13.21
2023-05-08T23:49:30.155Z,13.04
2023-05-08T23:51:57.295Z,13.06
2023-05-08T23:54:24.893Z,13.15
2023-05-08T23:56:51.770Z,13.24
2023-05-08T23:59:18.658Z,13.11
